createdAt,value
2023-03-02T00:01:00.792Z,31.85
2023-03-02T00:03:31.052Z,32.21
2023-03-02T00:06:00.373Z,32.17
2023-03-02T00:08:29.287Z,32.07
2023-03-02T00:10:58.897Z,31.88
2023-03-02T00:13:26.617Z,32.06
2023-03-02T00:15:54.413Z,32.00
2023-03-02T00:18:22.202Z,32.00
2023-03-02T00:20:51.439Z,31.97
2023-03-02T00:23:19.210Z,31.97
2023-03-02T00:25:47.026Z,31.97
2023-03-02T00:28:14.761Z,32.07
2023-03-02T00:30:42.681Z,32.11
2023-03-02T00:33:10.433Z,31.90
2023-03-02T00:35:39.149Z,32.06
2023-03-02T00:38:08.867Z,32.03
2023-03-02T00:40:37.170Z,32.00
2023-03-02T00:43:05.042Z,32.29
2023-03-02T00:45:32.787Z,31.97
2023-03-02T00:48:00.482Z,31.99
2023-03-02T00:50:28.303Z,31.92
2023-03-02T00:52:56.165Z,32.16
2023-03-02T00:55:25.336Z,32.12
2023-03-02T00:57:55.066Z,31.99
2023-03-02T01:00:28.493Z,31.92
2023-03-02T01:02:59.603Z,32.10
2023-03-02T01:05:27.606Z,32.20
2023-03-02T01:07:55.491Z,32.25
2023-03-02T01:10:23.274Z,32.19
2023-03-02T01:12:52.392Z,32.35
2023-03-02T01:15:20.419Z,32.05
2023-03-02T01:17:48.197Z,32.31
2023-03-02T01:20:16.565Z,32.33
2023-03-02T01:22:44.632Z,32.26
2023-03-02T01:25:13.829Z,32.31
2023-03-02T01:27:42.644Z,32.11
2023-03-02T01:30:13.697Z,32.31
2023-03-02T01:32:41.464Z,32.18
2023-03-02T01:35:10.158Z,32.45
2023-03-02T01:37:38.032Z,32.35
2023-03-02T01:40:06.872Z,32.61
2023-03-02T01:42:38.126Z,32.53
2023-03-02T01:45:07.383Z,32.61
2023-03-02T01:47:40.011Z,32.58
2023-03-02T01:50:20.911Z,32.57
2023-03-02T01:52:51.021Z,32.42
2023-03-02T01:55:29.051Z,32.44
2023-03-02T01:57:59.126Z,32.33
2023-03-02T02:00:30.792Z,32.42
2023-03-02T02:03:09.243Z,32.44
2023-03-02T02:05:40.018Z,32.49
2023-03-02T02:08:08.449Z,32.34
2023-03-02T02:10:36.991Z,32.28
2023-03-02T02:13:04.805Z,32.58
2023-03-02T02:15:32.639Z,32.57
2023-03-02T02:18:01.803Z,32.35
2023-03-02T02:20:35.175Z,32.62
2023-03-02T02:23:17.385Z,32.77
2023-03-02T02:25:55.375Z,32.68
2023-03-02T02:28:28.889Z,32.74
2023-03-02T02:31:07.823Z,33.14
2023-03-02T02:33:37.584Z,32.73
2023-03-02T02:36:09.272Z,32.83
2023-03-02T02:38:40.788Z,32.51
2023-03-02T02:41:19.197Z,33.21
2023-03-02T02:43:47.226Z,32.66
2023-03-02T02:46:15.037Z,32.90
2023-03-02T02:48:42.853Z,32.94
2023-03-02T02:51:19.084Z,33.11
2023-03-02T02:53:51.113Z,33.05
2023-03-02T02:56:20.455Z,33.20
2023-03-02T02:58:52.703Z,33.33
2023-03-02T03:01:25.435Z,33.20
2023-03-02T03:03:54.858Z,33.75
2023-03-02T03:06:26.702Z,33.42
2023-03-02T03:09:01.998Z,33.66
2023-03-02T03:11:53.583Z,33.39
2023-03-02T03:14:25.772Z,33.38
2023-03-02T03:16:55.098Z,33.29
2023-03-02T03:19:24.972Z,33.37
2023-03-02T03:21:56.156Z,33.31
2023-03-02T03:24:26.785Z,33.36
2023-03-02T03:26:57.054Z,33.26
2023-03-02T03:29:29.308Z,33.74
2023-03-02T03:32:01.526Z,33.28
2023-03-02T03:34:31.842Z,33.38
2023-03-02T03:37:01.735Z,33.67
2023-03-02T03:39:32.827Z,33.48
2023-03-02T03:42:02.242Z,33.56
2023-03-02T03:44:30.612Z,33.23
2023-03-02T03:46:58.826Z,33.53
2023-03-02T03:49:27.312Z,33.54
2023-03-02T03:51:56.238Z,33.45
2023-03-02T03:54:24.640Z,33.71
2023-03-02T03:56:52.545Z,33.50
2023-03-02T03:59:24.028Z,34.12
2023-03-02T04:01:57.776Z,33.76
2023-03-02T04:04:30.897Z,33.62
2023-03-02T04:06:59.159Z,33.71
2023-03-02T04:09:27.865Z,33.92
2023-03-02T04:11:58.276Z,33.81
2023-03-02T04:14:28.787Z,33.94
2023-03-02T04:16:57.582Z,33.98
2023-03-02T04:19:27.095Z,33.89
2023-03-02T04:22:01.943Z,33.98
2023-03-02T04:24:29.811Z,33.92
2023-03-02T04:27:00.839Z,33.78
2023-03-02T04:29:32.358Z,34.07
2023-03-02T04:32:01.727Z,33.87
2023-03-02T04:34:30.962Z,33.81
2023-03-02T04:36:59.009Z,33.86
2023-03-02T04:39:27.625Z,33.93
2023-03-02T04:41:55.583Z,33.98
2023-03-02T04:44:23.786Z,33.82
2023-03-02T04:46:53.030Z,34.09
2023-03-02T04:49:21.269Z,34.05
2023-03-02T04:51:50.372Z,34.09
2023-03-02T04:54:20.559Z,34.41
2023-03-02T04:56:48.541Z,33.97
2023-03-02T04:59:17.005Z,34.10
2023-03-02T05:01:44.873Z,34.18
2023-03-02T05:04:14.115Z,34.02
2023-03-02T05:06:41.876Z,34.11
2023-03-02T05:09:09.715Z,34.14
2023-03-02T05:11:38.116Z,34.21
2023-03-02T05:14:07.795Z,33.96
2023-03-02T05:16:37.546Z,33.98
2023-03-02T05:19:07.217Z,34.01
2023-03-02T05:21:36.891Z,34.11
2023-03-02T05:24:05.264Z,34.06
2023-03-02T05:26:33.767Z,33.87
2023-03-02T05:29:01.716Z,33.82
2023-03-02T05:31:34.933Z,34.21
2023-03-02T05:34:03.341Z,34.29
2023-03-02T05:36:31.438Z,34.14
2023-03-02T05:39:00.581Z,34.13
2023-03-02T05:41:28.501Z,34.34
2023-03-02T05:43:56.331Z,34.21
2023-03-02T05:46:24.705Z,34.15
2023-03-02T05:48:52.502Z,33.99
2023-03-02T05:51:20.392Z,34.32
2023-03-02T05:53:48.186Z,34.14
2023-03-02T05:56:17.404Z,34.35
2023-03-02T05:58:45.168Z,34.00
2023-03-02T06:01:15.452Z,33.89
2023-03-02T06:03:44.820Z,34.02
2023-03-02T06:06:14.579Z,33.95
2023-03-02T06:08:43.279Z,34.28
2023-03-02T06:11:11.514Z,33.97
2023-03-02T06:13:41.507Z,34.16
2023-03-02T06:16:09.679Z,34.25
2023-03-02T06:18:40.431Z,34.15
2023-03-02T06:25:03.431Z,34.34
2023-03-02T06:27:31.199Z,34.19
2023-03-02T06:30:00.293Z,34.14
2023-03-02T06:32:34.089Z,34.15
2023-03-02T06:35:02.109Z,34.30
2023-03-02T06:37:30.402Z,34.38
2023-03-02T06:39:58.645Z,34.36
2023-03-02T06:42:27.787Z,34.30
2023-03-02T06:44:55.815Z,34.22
2023-03-02T06:47:25.422Z,34.17
2023-03-02T06:49:53.204Z,34.48
2023-03-02T06:52:21.000Z,34.53
2023-03-02T06:54:48.838Z,34.51
2023-03-02T06:57:16.544Z,34.85
2023-03-02T06:59:44.316Z,35.15
2023-03-02T07:02:12.521Z,35.34
2023-03-02T07:04:41.846Z,35.41
2023-03-02T07:07:09.864Z,35.61
2023-03-02T07:09:37.711Z,35.67
2023-03-02T07:12:05.617Z,35.39
2023-03-02T07:14:35.547Z,35.53
2023-03-02T07:17:05.415Z,35.31
2023-03-02T07:19:33.307Z,35.39
2023-03-02T07:22:02.384Z,35.02
2023-03-02T07:24:30.216Z,34.98
2023-03-02T07:26:58.020Z,35.01
2023-03-02T07:29:25.862Z,34.79
2023-03-02T07:31:57.098Z,34.94
2023-03-02T07:34:25.618Z,34.78
2023-03-02T07:36:53.984Z,34.53
2023-03-02T07:39:23.318Z,33.52
2023-03-02T07:41:51.037Z,33.83
2023-03-02T07:44:22.448Z,33.55
2023-03-02T07:46:50.323Z,33.42
2023-03-02T07:49:18.132Z,33.29
2023-03-02T07:51:45.976Z,32.97
2023-03-02T07:54:13.732Z,32.87
2023-03-02T07:56:42.904Z,32.53
2023-03-02T07:59:12.081Z,32.68
2023-03-02T08:01:39.928Z,32.51
2023-03-02T08:04:07.665Z,32.11
2023-03-02T08:06:35.486Z,31.83
2023-03-02T08:09:03.468Z,31.45
2023-03-02T08:11:31.401Z,31.39
2023-03-02T08:14:02.660Z,30.54
2023-03-02T08:16:31.214Z,31.07
2023-03-02T08:18:59.990Z,31.01
2023-03-02T08:21:29.203Z,30.64
2023-03-02T08:23:58.433Z,30.69
2023-03-02T08:26:26.324Z,30.67
2023-03-02T08:28:54.026Z,30.82
2023-03-02T08:31:23.203Z,30.40
2023-03-02T08:33:51.081Z,30.88
2023-03-02T08:36:20.510Z,30.60
2023-03-02T08:38:49.835Z,30.69
2023-03-02T08:41:21.040Z,30.65
2023-03-02T08:43:49.404Z,30.70
2023-03-02T08:46:19.600Z,30.90
2023-03-02T08:48:51.197Z,30.92
2023-03-02T08:51:21.558Z,30.91
2023-03-02T08:53:51.607Z,30.85
2023-03-02T08:56:21.328Z,31.00
2023-03-02T08:58:49.614Z,31.03
2023-03-02T09:01:19.611Z,30.94
2023-03-02T09:03:49.194Z,30.94
2023-03-02T09:06:16.935Z,30.89
2023-03-02T09:08:45.322Z,30.96
2023-03-02T09:11:13.430Z,31.16
2023-03-02T09:13:41.392Z,30.93
2023-03-02T09:16:09.962Z,30.93
2023-03-02T09:18:37.824Z,30.88
2023-03-02T09:21:07.431Z,30.59
2023-03-02T09:23:36.484Z,30.70
2023-03-02T09:26:04.841Z,30.47
2023-03-02T09:28:33.125Z,30.51
2023-03-02T09:31:04.218Z,30.54
2023-03-02T09:33:33.379Z,30.76
2023-03-02T09:36:02.323Z,30.75
2023-03-02T09:38:31.554Z,30.56
2023-03-02T09:41:21.076Z,29.91
2023-03-02T09:44:00.090Z,30.29
2023-03-02T09:46:34.494Z,30.59
2023-03-02T09:49:15.999Z,30.21
2023-03-02T09:51:48.356Z,30.41
2023-03-02T09:54:24.208Z,30.24
2023-03-02T09:56:57.163Z,30.26
2023-03-02T09:59:27.224Z,29.84
2023-03-02T10:02:01.301Z,29.94
2023-03-02T10:04:31.391Z,29.84
2023-03-02T10:07:06.970Z,28.73
2023-03-02T10:09:36.124Z,29.53
2023-03-02T10:12:22.564Z,29.02
2023-03-02T10:14:56.865Z,29.38
2023-03-02T10:17:41.121Z,28.41
2023-03-02T10:20:18.204Z,28.51
2023-03-02T10:22:49.386Z,29.58
2023-03-02T10:25:31.602Z,28.79
2023-03-02T10:28:03.744Z,28.77
2023-03-02T10:30:36.394Z,29.14
2023-03-02T10:33:11.303Z,29.33
2023-03-02T10:35:39.403Z,29.38
2023-03-02T10:38:14.240Z,28.42
2023-03-02T10:40:46.588Z,27.95
2023-03-02T10:43:19.388Z,28.60
2023-03-02T10:45:47.738Z,28.93
2023-03-02T10:48:16.266Z,29.49
2023-03-02T10:50:45.321Z,29.02
2023-03-02T10:53:19.008Z,27.90
2023-03-02T10:55:50.233Z,28.85
2023-03-02T10:58:25.949Z,27.85
2023-03-02T11:01:01.805Z,27.64
2023-03-02T11:03:30.319Z,28.08
2023-03-02T11:05:58.608Z,27.98
2023-03-02T11:08:28.628Z,27.81
2023-03-02T11:11:01.211Z,26.80
2023-03-02T11:13:32.249Z,27.15
2023-03-02T11:16:01.478Z,27.01
2023-03-02T11:18:33.932Z,26.99
2023-03-02T11:21:05.588Z,27.23
2023-03-02T11:23:46.564Z,26.43
2023-03-02T11:26:22.701Z,26.13
2023-03-02T11:28:59.360Z,26.76
2023-03-02T11:31:37.864Z,26.39
2023-03-02T11:34:21.239Z,27.00
2023-03-02T11:37:02.332Z,26.73
2023-03-02T11:39:49.999Z,26.14
2023-03-02T11:42:28.045Z,26.59
2023-03-02T11:44:56.243Z,27.23
2023-03-02T11:47:24.567Z,27.14
2023-03-02T11:49:56.209Z,26.57
2023-03-02T11:52:28.403Z,26.96
2023-03-02T11:55:00.458Z,26.95
2023-03-02T11:57:34.303Z,26.28
2023-03-02T12:00:04.804Z,26.60
2023-03-02T12:02:40.236Z,26.59
2023-03-02T12:05:24.168Z,26.46
2023-03-02T12:07:58.834Z,25.68
2023-03-02T12:10:32.297Z,26.35
2023-03-02T12:13:13.901Z,25.72
2023-03-02T12:15:43.446Z,26.35
2023-03-02T12:18:31.690Z,24.33
2023-03-02T12:21:06.035Z,25.58
2023-03-02T12:23:36.585Z,25.69
2023-03-02T12:26:09.304Z,25.55
2023-03-02T12:28:40.715Z,25.63
2023-03-02T12:31:14.525Z,24.06
2023-03-02T12:33:46.950Z,24.33
2023-03-02T12:36:19.361Z,24.90
2023-03-02T12:39:00.543Z,24.74
2023-03-02T12:41:41.481Z,23.18
2023-03-02T12:44:24.395Z,23.19
2023-03-02T12:46:54.278Z,24.57
2023-03-02T12:49:35.292Z,23.36
2023-03-02T12:52:05.666Z,24.58
2023-03-02T12:54:35.290Z,24.34
2023-03-02T12:57:08.976Z,24.24
2023-03-02T12:59:38.316Z,24.61
2023-03-02T13:02:18.321Z,23.61
2023-03-02T13:04:52.702Z,24.60
2023-03-02T13:07:25.191Z,24.65
2023-03-02T13:09:56.899Z,24.68
2023-03-02T13:12:28.044Z,24.26
2023-03-02T13:14:59.439Z,23.73
2023-03-02T13:17:30.943Z,23.79
2023-03-02T13:20:00.813Z,24.45
2023-03-02T13:22:29.291Z,24.21
2023-03-02T13:25:00.326Z,24.17
2023-03-02T13:27:28.661Z,24.29
2023-03-02T13:30:09.049Z,24.26
2023-03-02T13:32:41.160Z,23.92
2023-03-02T13:35:19.152Z,23.83
2023-03-02T13:37:47.211Z,24.26
2023-03-02T13:40:34.960Z,23.44
2023-03-02T13:43:02.824Z,24.24
2023-03-02T13:45:34.037Z,24.33
2023-03-02T13:48:15.305Z,22.53
2023-03-02T13:50:52.531Z,23.06
2023-03-02T13:53:21.373Z,23.87
2023-03-02T13:55:49.773Z,24.18
2023-03-02T13:58:20.035Z,23.90
2023-03-02T14:00:50.507Z,24.00
2023-03-02T14:03:26.806Z,23.00
2023-03-02T14:05:55.646Z,23.73
2023-03-02T14:08:23.675Z,23.96
2023-03-02T14:10:54.209Z,24.12
2023-03-02T14:13:24.972Z,24.11
2023-03-02T14:15:54.898Z,23.68
2023-03-02T14:18:30.375Z,22.60
2023-03-02T14:20:58.645Z,23.59
2023-03-02T14:23:27.242Z,23.17
2023-03-02T14:25:57.417Z,23.71
2023-03-02T14:28:29.041Z,23.45
2023-03-02T14:30:59.534Z,23.44
2023-03-02T14:33:27.803Z,23.54
2023-03-02T14:35:58.261Z,23.40
2023-03-02T14:38:28.140Z,23.32
2023-03-02T14:40:56.299Z,23.32
2023-03-02T14:43:25.206Z,23.79
2023-03-02T14:45:53.354Z,23.38
2023-03-02T14:48:22.596Z,23.04
2023-03-02T14:50:52.523Z,23.47
2023-03-02T14:53:27.236Z,23.20
2023-03-02T14:55:55.045Z,23.13
2023-03-02T14:58:30.637Z,22.25
2023-03-02T15:01:01.036Z,22.83
2023-03-02T15:03:30.546Z,22.68
2023-03-02T15:06:01.789Z,23.02
2023-03-02T15:08:30.547Z,22.94
2023-03-02T15:10:58.485Z,23.14
2023-03-02T15:13:26.323Z,23.26
2023-03-02T15:15:54.242Z,23.26
2023-03-02T15:18:22.109Z,23.20
2023-03-02T15:20:51.216Z,23.22
2023-03-02T15:23:19.026Z,23.04
2023-03-02T15:25:46.728Z,23.09
2023-03-02T15:28:14.460Z,22.76
2023-03-02T15:30:42.186Z,23.07
2023-03-02T15:33:10.077Z,23.24
2023-03-02T15:35:40.173Z,22.72
2023-03-02T15:38:09.516Z,22.93
2023-03-02T15:40:37.549Z,23.28
2023-03-02T15:43:05.362Z,23.45
2023-03-02T15:45:33.193Z,23.26
2023-03-02T15:48:00.948Z,23.44
2023-03-02T15:50:28.701Z,23.50
2023-03-02T15:52:57.469Z,23.60
2023-03-02T15:55:27.094Z,23.51
2023-03-02T15:57:58.000Z,23.70
2023-03-02T16:00:25.994Z,23.75
2023-03-02T16:02:53.845Z,23.71
2023-03-02T16:05:21.807Z,23.66
2023-03-02T16:07:49.581Z,23.58
2023-03-02T16:10:19.647Z,23.76
2023-03-02T16:12:48.741Z,23.77
2023-03-02T16:15:16.668Z,24.01
2023-03-02T16:17:44.463Z,23.97
2023-03-02T16:20:13.421Z,24.03
2023-03-02T16:22:41.249Z,24.24
2023-03-02T16:25:09.860Z,24.14
2023-03-02T16:27:38.039Z,24.19
2023-03-02T16:30:08.726Z,24.10
2023-03-02T16:32:36.636Z,24.20
2023-03-02T16:35:04.760Z,24.40
2023-03-02T16:37:32.653Z,24.42
2023-03-02T16:40:00.418Z,24.18
2023-03-02T16:42:30.318Z,24.48
2023-03-02T16:44:58.173Z,24.45
2023-03-02T16:47:27.360Z,24.27
2023-03-02T16:49:55.156Z,24.50
2023-03-02T16:52:23.047Z,24.51
2023-03-02T16:54:50.882Z,24.56
2023-03-02T16:57:18.679Z,24.62
2023-03-02T16:59:46.494Z,24.89
2023-03-02T17:02:15.635Z,24.82
2023-03-02T17:04:45.127Z,24.66
2023-03-02T17:07:12.980Z,25.02
2023-03-02T17:09:42.086Z,25.29
2023-03-02T17:12:09.878Z,25.10
2023-03-02T17:14:37.693Z,25.17
2023-03-02T17:17:05.574Z,25.58
2023-03-02T17:19:33.718Z,25.62
2023-03-02T17:22:03.641Z,25.73
2023-03-02T17:24:31.837Z,26.04
2023-03-02T17:26:59.668Z,26.24
2023-03-02T17:29:27.825Z,26.45
2023-03-02T17:31:56.238Z,26.78
2023-03-02T17:34:24.121Z,26.73
2023-03-02T17:36:51.882Z,26.85
2023-03-02T17:39:21.044Z,26.93
2023-03-02T17:41:48.842Z,26.96
2023-03-02T17:44:16.585Z,27.10
2023-03-02T17:46:45.377Z,27.26
2023-03-02T17:49:13.760Z,27.29
2023-03-02T17:51:41.551Z,27.41
2023-03-02T17:54:09.278Z,27.63
2023-03-02T17:56:38.904Z,27.56
2023-03-02T17:59:06.792Z,27.97
2023-03-02T18:01:34.794Z,27.88
2023-03-02T18:04:02.637Z,28.04
2023-03-02T18:06:30.443Z,27.97
2023-03-02T18:08:58.200Z,28.11
2023-03-02T18:11:27.160Z,28.21
2023-03-02T18:13:56.494Z,28.25
2023-03-02T18:16:27.871Z,28.40
2023-03-02T18:18:55.899Z,28.37
2023-03-02T18:21:24.391Z,28.55
2023-03-02T18:23:52.275Z,28.74
2023-03-02T18:26:20.010Z,28.73
2023-03-02T18:28:47.854Z,28.79
2023-03-02T18:31:18.072Z,29.05
2023-03-02T18:33:46.308Z,28.95
2023-03-02T18:36:14.367Z,29.08
2023-03-02T18:38:42.545Z,29.11
2023-03-02T18:41:11.032Z,29.26
2023-03-02T18:43:41.864Z,29.44
2023-03-02T18:46:20.158Z,30.19
2023-03-02T18:48:49.401Z,29.32
2023-03-02T18:51:17.530Z,29.57
2023-03-02T18:53:45.857Z,29.51
2023-03-02T18:56:13.904Z,29.42
2023-03-02T18:58:42.313Z,29.60
2023-03-02T19:01:10.194Z,29.82
2023-03-02T19:03:40.133Z,30.00
2023-03-02T19:06:08.624Z,29.93
2023-03-02T19:08:36.954Z,29.90
2023-03-02T19:11:06.334Z,30.07
2023-03-02T19:13:34.821Z,30.31
2023-03-02T19:16:02.955Z,30.04
2023-03-02T19:18:31.284Z,30.10
2023-03-02T19:21:01.207Z,30.46
2023-03-02T19:23:28.970Z,30.45
2023-03-02T19:25:56.725Z,30.18
2023-03-02T19:28:24.673Z,30.33
2023-03-02T19:30:52.646Z,30.57
2023-03-02T19:33:20.449Z,30.38
2023-03-02T19:35:48.287Z,30.78
2023-03-02T19:38:18.267Z,30.83
2023-03-02T19:40:46.057Z,30.87
2023-03-02T19:43:13.830Z,31.12
2023-03-02T19:45:41.762Z,31.15
2023-03-02T19:48:13.519Z,31.27
2023-03-02T19:50:41.668Z,31.68
2023-03-02T19:53:10.274Z,31.64
2023-03-02T19:55:39.705Z,31.68
2023-03-02T19:58:08.089Z,31.88
2023-03-02T20:00:36.256Z,32.08
2023-03-02T20:03:05.933Z,31.94
2023-03-02T20:05:33.779Z,32.29
2023-03-02T20:08:01.567Z,32.28
2023-03-02T20:10:31.487Z,32.46
2023-03-02T20:13:00.932Z,32.37
2023-03-02T20:15:29.900Z,32.05
2023-03-02T20:17:59.394Z,32.37
2023-03-02T20:20:28.150Z,32.43
2023-03-02T20:22:55.934Z,32.32
2023-03-02T20:25:24.255Z,32.28
2023-03-02T20:27:52.942Z,32.54
2023-03-02T20:30:27.669Z,32.91
2023-03-02T20:32:57.216Z,32.52
2023-03-02T20:35:28.157Z,32.38
2023-03-02T20:37:57.417Z,32.63
2023-03-02T20:40:26.654Z,32.57
2023-03-02T20:42:55.118Z,32.60
2023-03-02T20:45:24.957Z,32.83
2023-03-02T20:47:52.907Z,32.77
2023-03-02T20:50:24.472Z,33.09
2023-03-02T20:52:52.388Z,32.88
2023-03-02T20:55:20.497Z,32.87
2023-03-02T20:57:48.963Z,33.12
2023-03-02T21:00:21.195Z,33.12
2023-03-02T21:02:50.843Z,33.24
2023-03-02T21:05:20.186Z,33.29
2023-03-02T21:07:49.215Z,33.09
2023-03-02T21:10:20.191Z,33.18
2023-03-02T21:12:49.001Z,33.12
2023-03-02T21:15:17.613Z,33.09
2023-03-02T21:17:45.440Z,33.16
2023-03-02T21:20:18.382Z,33.54
2023-03-02T21:22:46.972Z,33.17
2023-03-02T21:25:16.960Z,33.35
2023-03-02T21:27:45.786Z,33.33
2023-03-02T21:30:19.700Z,33.66
2023-03-02T21:32:48.269Z,33.34
2023-03-02T21:35:19.900Z,33.78
2023-03-02T21:37:49.309Z,33.66
2023-03-02T21:40:20.338Z,33.96
2023-03-02T21:42:48.331Z,33.61
2023-03-02T21:45:16.115Z,33.67
2023-03-02T21:47:44.588Z,33.63
2023-03-02T21:50:16.798Z,33.96
2023-03-02T21:52:45.922Z,33.86
2023-03-02T21:55:14.678Z,33.81
2023-03-02T21:57:42.974Z,33.93
2023-03-02T22:00:20.740Z,34.61
2023-03-02T22:02:48.674Z,33.80
2023-03-02T22:05:16.620Z,33.91
2023-03-02T22:07:45.977Z,33.94
2023-03-02T22:10:23.939Z,34.79
2023-03-02T22:12:56.335Z,34.03
2023-03-02T22:15:24.242Z,34.06
2023-03-02T22:17:52.351Z,34.10
2023-03-02T22:20:21.030Z,34.02
2023-03-02T22:22:54.491Z,34.56
2023-03-02T22:25:22.672Z,34.13
2023-03-02T22:27:50.490Z,33.94
2023-03-02T22:30:22.212Z,34.50
2023-03-02T22:32:50.606Z,34.19
2023-03-02T22:35:24.600Z,34.92
2023-03-02T22:38:01.002Z,35.16
2023-03-02T22:40:31.381Z,34.36
2023-03-02T22:43:21.322Z,35.23
2023-03-02T22:45:49.115Z,34.27
2023-03-02T22:48:19.065Z,34.47
2023-03-02T22:50:48.944Z,34.35
2023-03-02T22:53:28.278Z,35.40
2023-03-02T22:55:58.485Z,34.57
2023-03-02T22:58:31.469Z,34.84
2023-03-02T23:00:59.854Z,35.28
2023-03-02T23:03:37.990Z,35.05
2023-03-02T23:06:20.492Z,35.48
2023-03-02T23:08:50.724Z,34.65
2023-03-02T23:11:23.480Z,34.57
2023-03-02T23:13:52.250Z,34.47
2023-03-02T23:16:21.958Z,34.49
2023-03-02T23:18:50.921Z,34.62
2023-03-02T23:21:21.442Z,34.52
2023-03-02T23:23:51.636Z,34.95
2023-03-02T23:26:20.225Z,34.67
2023-03-02T23:28:49.219Z,34.38
2023-03-02T23:31:19.162Z,34.81
2023-03-02T23:33:47.074Z,34.72
2023-03-02T23:36:15.792Z,34.82
2023-03-02T23:38:43.712Z,34.75
2023-03-02T23:41:12.828Z,34.87
2023-03-02T23:43:40.959Z,34.99
2023-03-02T23:46:08.743Z,35.16
2023-03-02T23:48:36.513Z,34.89
2023-03-02T23:51:04.384Z,35.06
2023-03-02T23:53:32.189Z,34.98
2023-03-02T23:56:00.232Z,35.15
2023-03-02T23:58:29.383Z,35.12
